Time;durP1;ratioP1;P1;durP2;ratioP2;P2;SDS_P1;SDS_P2;PMS_P1;PMS_P2;Temp;Humidity;BMP_temperature;BMP_pressure;BME280_temperature;BME280_humidity;BME280_pressure;Samples;Min_cycle;Max_cycle;Signal;HPM_P1;HPM_P2
2023/05/06 00:00:11;;;;;;;16.20;8.00;;;;;;;7.08;64.60;97381.36;108549;1250;100077;-72
2023/05/06 00:03:00;;;;;;;14.90;9.10;;;;;;;7.05;64.72;97378.17;108868;1250;96618;-72
2023/05/06 00:05:28;;;;;;;15.20;8.30;;;;;;;7.03;64.92;97376.91;108958;1250;95683;-77
2023/05/06 00:07:56;;;;;;;13.80;9.30;;;;;;;6.94;64.85;97380.03;108942;1250;103381;-72
2023/05/06 00:10:25;;;;;;;12.70;9.20;;;;;;;6.81;64.93;97380.84;108920;1250;101299;-76
2023/05/06 00:12:53;;;;;;;11.80;8.50;;;;;;;6.75;65.23;97380.69;108914;1250;100162;-75
2023/05/06 00:15:21;;;;;;;13.40;8.10;;;;;;;6.73;65.34;97385.33;108884;1250;95770;-72
2023/05/06 00:17:49;;;;;;;13.60;8.00;;;;;;;6.69;65.49;97388.77;108707;1251;96524;-75
2023/05/06 00:20:18;;;;;;;10.10;7.20;;;;;;;6.68;65.49;97390.36;108855;1250;103528;-73
2023/05/06 00:22:46;;;;;;;10.30;7.10;;;;;;;6.66;65.54;97383.65;108925;1250;101582;-76
2023/05/06 00:25:14;;;;;;;12.80;7.30;;;;;;;6.64;65.58;97388.71;108911;1250;100129;-73
2023/05/06 00:27:42;;;;;;;7.10;6.10;;;;;;;6.59;65.52;97395.05;108861;1250;95560;-72
2023/05/06 00:30:11;;;;;;;9.30;6.70;;;;;;;6.52;65.57;97394.29;108954;1250;96006;-72
2023/05/06 00:32:39;;;;;;;11.60;7.30;;;;;;;6.46;65.80;97390.17;108950;1250;112411;-75
2023/05/06 00:35:07;;;;;;;10.50;6.30;;;;;;;6.44;65.92;97387.58;108957;1250;101179;-72
2023/05/06 00:37:35;;;;;;;13.60;6.90;;;;;;;6.41;65.85;97387.02;108666;1253;100165;-72
2023/05/06 00:40:04;;;;;;;12.90;7.20;;;;;;;6.40;66.00;97383.63;108869;1250;95637;-73
2023/05/06 00:42:33;;;;;;;12.40;6.40;;;;;;;6.39;66.10;97384.89;108925;1250;96061;-72
2023/05/06 00:45:01;;;;;;;10.50;7.40;;;;;;;6.36;66.05;97386.32;108899;1250;103594;-73
2023/05/06 00:47:29;;;;;;;10.00;7.20;;;;;;;6.31;66.17;97387.52;108657;1250;101369;-72
2023/05/06 00:49:58;;;;;;;12.20;7.30;;;;;;;6.28;66.19;97387.28;108916;1250;99178;-74
2023/05/06 00:52:26;;;;;;;10.30;7.50;;;;;;;6.27;66.25;97388.30;108549;1252;96125;-73
2023/05/06 00:54:54;;;;;;;13.70;8.20;;;;;;;6.22;66.22;97388.52;108956;1250;96016;-74
2023/05/06 00:57:23;;;;;;;15.80;9.40;;;;;;;6.11;66.33;97389.96;108960;1250;103612;-76
2023/05/06 00:59:51;;;;;;;19.70;9.40;;;;;;;6.02;66.59;97389.45;108943;1250;101445;-75
2023/05/06 01:02:19;;;;;;;14.50;8.00;;;;;;;6.01;66.78;97383.01;108921;1250;100177;-72
2023/05/06 01:04:47;;;;;;;12.00;8.20;;;;;;;6.02;66.98;97380.65;108455;1250;95685;-73
2023/05/06 01:07:42;;;;;;;13.20;9.20;;;;;;;6.04;66.87;97379.95;108911;1250;95997;-71
2023/05/06 01:10:17;;;;;;;14.90;9.30;;;;;;;6.04;66.94;97382.43;108939;1250;103874;-72
2023/05/06 01:12:58;;;;;;;14.70;9.60;;;;;;;6.04;67.00;97382.17;108907;1250;101241;-73
2023/05/06 01:15:31;;;;;;;15.50;9.50;;;;;;;6.04;67.08;97378.52;108880;1250;99980;-71
2023/05/06 01:18:02;;;;;;;13.20;8.60;;;;;;;6.02;67.08;97380.48;108927;1250;95542;-72
2023/05/06 01:20:32;;;;;;;12.20;8.70;;;;;;;6.01;67.11;97375.98;108949;1250;95796;-73
2023/05/06 01:23:02;;;;;;;16.80;9.20;;;;;;;6.04;67.29;97375.66;108919;1250;103509;-75
2023/05/06 01:25:32;;;;;;;13.80;8.40;;;;;;;6.04;67.38;97372.38;108930;1250;101377;-75
2023/05/06 01:28:00;;;;;;;14.50;8.80;;;;;;;6.01;67.38;97368.27;108912;1250;100051;-72
2023/05/06 01:30:37;;;;;;;17.90;8.50;;;;;;;5.97;67.44;97363.28;108947;1250;95512;-73
2023/05/06 01:33:19;;;;;;;18.10;9.20;;;;;;;5.94;67.56;97363.41;108934;1250;96097;-72
2023/05/06 01:36:10;;;;;;;13.80;8.40;;;;;;;5.92;67.63;97364.97;108891;1250;103733;-75
2023/05/06 01:38:45;;;;;;;11.40;7.30;;;;;;;5.89;67.59;97364.90;108962;1250;101428;-73
2023/05/06 01:41:18;;;;;;;14.00;7.20;;;;;;;5.84;67.44;97363.62;108479;1250;98994;-72
2023/05/06 01:43:48;;;;;;;10.70;6.90;;;;;;;5.77;67.41;97358.91;108906;1250;95564;-73
2023/05/06 01:46:20;;;;;;;12.90;7.10;;;;;;;5.74;67.57;97361.41;108482;1254;95965;-72
2023/05/06 01:48:52;;;;;;;12.50;7.80;;;;;;;5.71;67.57;97364.54;108508;1258;103265;-73
2023/05/06 01:51:22;;;;;;;12.10;6.30;;;;;;;5.69;67.65;97369.08;108543;1256;100071;-72
2023/05/06 01:53:50;;;;;;;13.60;7.00;;;;;;;5.65;67.66;97366.39;108440;1256;100214;-74
2023/05/06 01:56:18;;;;;;;11.70;6.90;;;;;;;5.63;67.76;97368.08;108254;1254;95598;-74
2023/05/06 01:58:46;;;;;;;10.50;7.20;;;;;;;5.62;67.84;97368.67;108541;1254;96034;-73
2023/05/06 02:01:14;;;;;;;9.00;6.80;;;;;;;5.58;67.90;97368.27;108501;1255;103788;-74
2023/05/06 02:03:42;;;;;;;9.60;7.00;;;;;;;5.56;68.00;97364.90;108303;1254;101353;-72
2023/05/06 02:06:10;;;;;;;13.10;7.40;;;;;;;5.57;68.11;97362.57;108540;1254;99768;-72
2023/05/06 02:08:40;;;;;;;9.00;6.50;;;;;;;5.55;68.15;97363.83;108510;1254;95666;-72
2023/05/06 02:11:08;;;;;;;11.10;6.90;;;;;;;5.54;68.13;97361.67;108535;1254;96201;-72
2023/05/06 02:13:36;;;;;;;10.10;6.70;;;;;;;5.53;68.24;97361.17;108573;1254;102845;-75
2023/05/06 02:16:04;;;;;;;10.40;7.20;;;;;;;5.52;68.25;97362.13;108594;1254;101567;-72
2023/05/06 02:18:32;;;;;;;8.60;6.80;;;;;;;5.48;68.29;97365.02;108480;1250;99618;-73
2023/05/06 02:21:01;;;;;;;10.10;7.20;;;;;;;5.44;68.34;97366.80;108884;1250;95571;-76
2023/05/06 02:23:30;;;;;;;10.30;7.50;;;;;;;5.43;68.31;97371.20;108946;1250;96016;-74
2023/05/06 02:25:58;;;;;;;11.60;7.10;;;;;;;5.39;68.41;97368.71;108919;1250;103454;-72
2023/05/06 02:28:26;;;;;;;11.50;6.50;;;;;;;5.39;68.48;97366.41;108941;1250;101319;-72
2023/05/06 02:30:58;;;;;;;10.70;7.40;;;;;;;5.40;68.63;97367.54;108828;1250;100108;-73
2023/05/06 02:33:26;;;;;;;12.00;7.80;;;;;;;5.40;68.73;97366.42;108911;1250;95574;-73
2023/05/06 02:35:54;;;;;;;11.00;7.30;;;;;;;5.39;68.82;97364.27;108588;1253;96369;-74
2023/05/06 02:38:22;;;;;;;11.10;7.80;;;;;;;5.39;68.83;97361.42;108591;1250;102713;-72
2023/05/06 02:40:50;;;;;;;10.20;7.40;;;;;;;5.37;68.81;97360.23;108908;1250;101448;-72
2023/05/06 02:43:18;;;;;;;11.80;7.80;;;;;;;5.36;68.88;97361.73;108894;1250;100100;-72
2023/05/06 02:45:47;;;;;;;13.90;7.70;;;;;;;5.37;68.96;97359.66;108873;1250;95659;-74
2023/05/06 02:48:15;;;;;;;10.00;7.00;;;;;;;5.37;69.18;97357.34;108919;1250;95630;-72
2023/05/06 02:50:43;;;;;;;12.60;7.50;;;;;;;5.36;69.21;97359.59;108960;1250;103325;-74
2023/05/06 02:53:12;;;;;;;11.00;7.20;;;;;;;5.35;69.25;97360.08;108943;1250;101542;-72
2023/05/06 02:55:40;;;;;;;11.30;7.70;;;;;;;5.35;69.38;97360.40;108916;1250;100138;-74
2023/05/06 02:58:08;;;;;;;17.40;9.90;;;;;;;5.36;69.47;97355.71;108887;1251;95573;-73
2023/05/06 03:00:36;;;;;;;18.30;10.40;;;;;;;5.36;69.44;97356.71;108936;1251;96031;-72
2023/05/06 03:03:04;;;;;;;18.80;10.00;;;;;;;5.36;69.38;97356.95;108925;1250;103816;-72
2023/05/06 03:05:32;;;;;;;17.00;9.30;;;;;;;5.36;69.46;97356.89;108929;1250;101037;-75
2023/05/06 03:08:01;;;;;;;17.50;9.90;;;;;;;5.37;69.59;97358.29;108884;1250;100238;-72
2023/05/06 03:10:29;;;;;;;21.30;10.70;;;;;;;5.37;69.61;97357.15;108917;1254;96086;-74
2023/05/06 03:12:57;;;;;;;16.00;9.80;;;;;;;5.38;69.63;97352.42;108939;1250;96024;-73
2023/05/06 03:15:25;;;;;;;18.00;9.40;;;;;;;5.37;69.61;97350.73;108934;1250;112257;-76
2023/05/06 03:17:53;;;;;;;16.80;9.90;;;;;;;5.37;69.70;97345.16;108955;1250;101381;-72
2023/05/06 03:20:21;;;;;;;21.90;11.30;;;;;;;5.37;69.73;97341.80;108527;1250;100182;-72
2023/05/06 03:22:49;;;;;;;25.30;13.70;;;;;;;5.36;69.64;97345.80;108744;1250;95683;-72
2023/05/06 03:25:17;;;;;;;28.60;13.60;;;;;;;5.36;69.86;97345.48;108564;1251;96378;-72
2023/05/06 03:27:45;;;;;;;27.00;12.40;;;;;;;5.33;69.97;97341.88;108925;1251;103817;-72
2023/05/06 03:30:14;;;;;;;32.80;15.90;;;;;;;5.31;69.96;97339.29;108934;1250;101400;-72
2023/05/06 03:32:42;;;;;;;36.10;16.60;;;;;;;5.34;70.13;97328.46;108901;1250;98000;-72
2023/05/06 03:35:10;;;;;;;40.30;19.10;;;;;;;5.35;70.17;97328.61;108899;1250;95621;-74
2023/05/06 03:37:38;;;;;;;34.10;18.30;;;;;;;5.37;70.24;97329.91;108929;1250;95984;-73
2023/05/06 03:40:07;;;;;;;51.80;25.50;;;;;;;5.36;70.33;97330.02;108612;1254;103742;-75
2023/05/06 03:42:35;;;;;;;48.70;25.90;;;;;;;5.34;70.40;97333.27;108578;1251;109338;-73
2023/05/06 03:45:05;;;;;;;35.90;18.90;;;;;;;5.35;70.52;97331.70;108857;1250;99491;-73
2023/05/06 03:47:33;;;;;;;91.00;41.10;;;;;;;5.38;70.60;97331.10;108866;1254;95543;-72
2023/05/06 03:50:01;;;;;;;90.60;41.80;;;;;;;5.43;70.64;97327.72;108906;1250;96070;-74
2023/05/06 03:52:30;;;;;;;88.80;39.90;;;;;;;5.50;70.69;97331.08;108919;1251;103702;-73
2023/05/06 03:54:58;;;;;;;68.70;30.70;;;;;;;5.57;70.79;97335.96;108899;1250;101274;-72
2023/05/06 03:57:26;;;;;;;45.00;21.80;;;;;;;5.60;70.80;97334.25;108553;1251;99765;-72
2023/05/06 03:59:54;;;;;;;36.40;17.10;;;;;;;5.64;70.89;97330.11;108883;1254;95593;-72
2023/05/06 04:02:22;;;;;;;29.20;16.10;;;;;;;5.69;70.80;97329.98;108938;1251;97045;-73
2023/05/06 04:04:50;;;;;;;29.90;16.70;;;;;;;5.75;70.83;97326.75;108873;1250;103471;-74
2023/05/06 04:07:19;;;;;;;33.30;15.30;;;;;;;5.81;70.82;97327.45;108856;1251;101546;-73
2023/05/06 04:09:47;;;;;;;23.60;14.00;;;;;;;5.87;70.90;97330.02;108627;1251;98985;-73
2023/05/06 04:12:15;;;;;;;24.30;13.90;;;;;;;5.91;71.02;97330.59;108844;1250;95662;-73
2023/05/06 04:14:43;;;;;;;27.60;14.30;;;;;;;5.95;71.06;97332.55;108903;1251;96057;-76
2023/05/06 04:17:11;;;;;;;26.40;15.10;;;;;;;6.00;71.01;97335.02;108609;1250;103300;-72
2023/05/06 04:19:39;;;;;;;30.40;17.10;;;;;;;6.04;71.05;97334.86;108927;1251;101325;-77
2023/05/06 04:22:07;;;;;;;31.20;18.10;;;;;;;6.09;71.04;97338.10;108633;1251;99662;-72
2023/05/06 04:24:35;;;;;;;39.30;19.40;;;;;;;6.13;71.09;97345.64;108876;1251;95526;-74
2023/05/06 04:27:04;;;;;;;36.90;21.30;;;;;;;6.17;71.26;97339.09;108966;1250;95980;-77
2023/05/06 04:29:32;;;;;;;36.50;18.90;;;;;;;6.22;71.21;97343.85;108893;1251;103567;-72
2023/05/06 04:32:01;;;;;;;30.40;17.10;;;;;;;6.27;71.27;97347.39;108893;1251;101420;-74
2023/05/06 04:34:29;;;;;;;32.50;16.50;;;;;;;6.29;71.26;97345.63;108900;1251;99585;-74
2023/05/06 04:36:58;;;;;;;26.10;14.70;;;;;;;6.33;71.17;97346.42;108857;1251;95587;-72
2023/05/06 04:39:26;;;;;;;29.40;16.00;;;;;;;6.39;71.20;97347.50;108620;1251;96048;-72
2023/05/06 04:41:54;;;;;;;28.30;15.40;;;;;;;6.46;71.27;97346.90;108925;1250;103559;-72
2023/05/06 04:44:22;;;;;;;24.60;14.30;;;;;;;6.55;71.22;97348.02;108921;1250;101507;-72
2023/05/06 04:46:50;;;;;;;24.80;13.60;;;;;;;6.63;71.24;97349.56;108868;1251;100160;-74
2023/05/06 04:49:18;;;;;;;23.60;14.00;;;;;;;6.70;71.14;97355.98;108636;1251;95639;-73
2023/05/06 04:51:46;;;;;;;27.20;15.50;;;;;;;6.77;71.05;97351.35;108637;1251;97049;-71
2023/05/06 04:54:14;;;;;;;24.30;13.20;;;;;;;6.85;71.25;97356.73;108874;1250;103229;-73
2023/05/06 04:56:42;;;;;;;16.40;10.60;;;;;;;6.94;71.29;97359.30;108941;1251;101401;-73
2023/05/06 04:59:10;;;;;;;17.10;11.40;;;;;;;7.02;71.18;97359.68;108901;1254;100064;-73
2023/05/06 05:01:39;;;;;;;14.30;10.10;;;;;;;7.10;71.11;97360.85;108591;1251;96190;-73
2023/05/06 05:04:07;;;;;;;14.90;9.20;;;;;;;7.18;71.02;97356.42;108903;1251;96002;-75
2023/05/06 05:06:35;;;;;;;13.70;10.10;;;;;;;7.26;70.92;97354.35;108550;1254;103838;-73
2023/05/06 05:09:03;;;;;;;54.00;23.90;;;;;;;7.34;71.15;97350.35;108344;1254;101383;-74
2023/05/06 05:11:32;;;;;;;89.90;40.70;;;;;;;7.40;71.07;97346.08;108281;1254;99602;-76
2023/05/06 05:14:00;;;;;;;91.00;42.50;;;;;;;7.48;71.00;97344.16;108532;1254;95552;-76
2023/05/06 05:16:28;;;;;;;88.60;40.90;;;;;;;7.56;70.89;97342.12;108531;1254;96169;-77
2023/05/06 05:18:56;;;;;;;59.50;29.50;;;;;;;7.63;70.84;97344.19;108570;1255;103343;-73
2023/05/06 05:21:24;;;;;;;55.90;27.60;;;;;;;7.68;70.76;97341.18;108437;1254;101161;-73
2023/05/06 05:23:52;;;;;;;39.70;22.30;;;;;;;7.75;70.69;97342.27;108514;1254;99815;-71
2023/05/06 05:26:21;;;;;;;36.00;20.90;;;;;;;7.83;70.58;97338.90;108566;1254;95687;-72
2023/05/06 05:28:49;;;;;;;30.90;18.10;;;;;;;7.92;70.53;97339.66;108580;1254;96199;-75
2023/05/06 05:31:17;;;;;;;29.90;17.70;;;;;;;8.02;70.58;97338.02;108566;1254;103446;-73
2023/05/06 05:33:45;;;;;;;28.80;16.40;;;;;;;8.13;70.64;97330.29;108574;1254;101578;-73
2023/05/06 05:36:14;;;;;;;18.90;10.00;;;;;;;8.25;70.68;97330.40;108304;1254;99689;-72
2023/05/06 05:38:42;;;;;;;15.20;9.90;;;;;;;8.36;70.53;97326.14;108569;1254;95653;-73
2023/05/06 05:41:10;;;;;;;14.30;8.60;;;;;;;8.48;70.18;97321.36;108541;1255;96144;-75
2023/05/06 05:43:38;;;;;;;13.00;10.10;;;;;;;8.59;70.07;97318.89;108632;1251;103639;-73
2023/05/06 05:46:06;;;;;;;14.90;8.50;;;;;;;8.72;70.00;97315.13;108901;1250;100410;-72
2023/05/06 05:48:35;;;;;;;15.80;8.20;;;;;;;8.85;69.90;97314.80;108867;1250;100192;-74
2023/05/06 05:51:03;;;;;;;14.80;7.50;;;;;;;8.98;69.87;97309.74;108898;1250;95784;-74
2023/05/06 05:53:31;;;;;;;13.70;8.00;;;;;;;9.12;69.72;97307.38;108909;1251;95991;-76
2023/05/06 05:55:59;;;;;;;19.80;7.90;;;;;;;9.27;69.67;97309.46;108641;1256;103324;-73
2023/05/06 05:58:27;;;;;;;11.00;6.50;;;;;;;9.43;69.68;97303.41;108862;1251;100642;-72
2023/05/06 06:00:55;;;;;;;10.10;6.30;;;;;;;9.59;69.36;97297.50;108858;1251;99778;-73
2023/05/06 06:03:24;;;;;;;12.00;7.50;;;;;;;9.74;69.02;97294.09;108710;1251;95577;-74
2023/05/06 06:05:54;;;;;;;12.00;6.90;;;;;;;9.89;68.82;97292.23;108931;1251;96108;-77
2023/05/06 06:08:22;;;;;;;10.30;7.40;;;;;;;10.04;68.92;97290.73;108902;1251;103602;-73
2023/05/06 06:10:50;;;;;;;15.60;7.30;;;;;;;10.20;69.07;97288.64;108878;1251;101387;-73
2023/05/06 06:13:18;;;;;;;9.40;6.60;;;;;;;10.37;68.77;97289.71;108840;1251;100113;-73
2023/05/06 06:15:46;;;;;;;9.90;6.80;;;;;;;10.54;68.41;97283.80;108869;1251;95554;-74
2023/05/06 06:18:14;;;;;;;11.60;7.30;;;;;;;10.71;68.34;97280.36;108925;1250;95999;-74
2023/05/06 06:20:43;;;;;;;11.90;7.40;;;;;;;10.87;68.11;97276.20;108890;1251;103392;-73
2023/05/06 06:23:11;;;;;;;13.50;6.90;;;;;;;11.04;67.90;97274.85;108673;1251;101108;-73
2023/05/06 06:25:39;;;;;;;14.50;7.80;;;;;;;11.21;67.62;97271.09;108857;1250;98532;-73
2023/05/06 06:28:07;;;;;;;14.10;8.00;;;;;;;11.37;67.52;97269.84;108886;1251;95782;-73
2023/05/06 06:30:35;;;;;;;12.80;6.90;;;;;;;11.52;67.15;97263.29;108911;1251;95995;-76
2023/05/06 06:33:04;;;;;;;11.00;6.30;;;;;;;11.66;66.82;97262.64;108641;1251;102256;-74
2023/05/06 06:35:32;;;;;;;8.40;5.70;;;;;;;11.79;66.47;97259.79;108901;1251;100892;-77
2023/05/06 06:38:01;;;;;;;8.00;5.20;;;;;;;11.91;65.93;97261.47;108886;1251;100504;-73
2023/05/06 06:40:29;;;;;;;11.60;5.50;;;;;;;12.04;65.58;97263.05;108886;1250;95536;-75
2023/05/06 06:42:58;;;;;;;11.30;6.30;;;;;;;12.16;65.46;97259.21;108873;1250;96495;-72
2023/05/06 06:45:26;;;;;;;7.80;5.70;;;;;;;12.28;65.25;97256.54;108918;1250;103185;-75
2023/05/06 06:47:54;;;;;;;9.40;6.20;;;;;;;12.42;65.26;97255.75;108905;1251;100890;-76
2023/05/06 06:50:22;;;;;;;9.80;6.20;;;;;;;12.56;65.50;97254.48;108813;1251;100109;-72
2023/05/06 06:52:50;;;;;;;15.30;6.00;;;;;;;12.70;65.11;97253.73;108858;1251;95631;-75
2023/05/06 06:55:18;;;;;;;9.40;6.40;;;;;;;12.84;64.78;97254.71;108953;1251;95978;-75
2023/05/06 06:57:46;;;;;;;12.70;6.10;;;;;;;12.96;64.45;97254.73;108863;1251;103685;-73
2023/05/06 07:00:15;;;;;;;10.00;6.10;;;;;;;13.09;64.01;97250.86;108869;1251;101397;-75
2023/05/06 07:02:43;;;;;;;8.90;6.10;;;;;;;13.22;63.99;97251.92;108868;1251;99503;-73
2023/05/06 07:05:11;;;;;;;8.90;5.80;;;;;;;13.38;63.69;97248.64;108892;1251;95808;-73
2023/05/06 07:07:39;;;;;;;11.00;6.10;;;;;;;13.53;63.36;97245.45;108796;1251;96073;-73
2023/05/06 07:10:08;;;;;;;12.30;6.30;;;;;;;13.69;63.19;97252.60;108664;1250;103623;-73
2023/05/06 07:12:37;;;;;;;9.00;5.70;;;;;;;13.85;63.02;97250.88;108626;1251;101327;-75
2023/05/06 07:15:05;;;;;;;8.10;5.60;;;;;;;14.00;62.51;97245.53;108675;1251;99881;-73
2023/05/06 07:17:34;;;;;;;11.20;5.80;;;;;;;14.17;62.41;97245.73;108773;1251;97005;-73
2023/05/06 07:20:02;;;;;;;8.90;6.10;;;;;;;14.32;62.23;97241.73;108913;1250;96242;-74
2023/05/06 07:22:30;;;;;;;8.60;5.70;;;;;;;14.46;61.87;97236.29;108904;1250;103360;-76
2023/05/06 07:24:58;;;;;;;8.70;5.30;;;;;;;14.60;61.59;97228.27;108895;1250;101144;-73
2023/05/06 07:27:29;;;;;;;9.90;5.90;;;;;;;14.72;60.99;97229.12;108672;1250;99959;-77
2023/05/06 07:29:57;;;;;;;11.10;5.40;;;;;;;14.86;60.80;97229.49;108872;1250;95523;-75
2023/05/06 07:32:25;;;;;;;10.90;5.50;;;;;;;15.03;60.58;97222.59;108919;1250;95975;-73
2023/05/06 07:34:53;;;;;;;7.00;5.00;;;;;;;15.25;60.18;97215.09;108896;1250;103383;-73
2023/05/06 07:37:21;;;;;;;7.40;5.10;;;;;;;15.55;60.01;97211.58;108894;1250;101477;-77
2023/05/06 07:39:49;;;;;;;7.60;4.70;;;;;;;15.91;59.37;97206.71;108914;1250;100005;-74
2023/05/06 07:42:17;;;;;;;11.90;5.00;;;;;;;16.31;58.44;97204.54;108888;1250;95611;-74
2023/05/06 07:44:45;;;;;;;10.80;6.00;;;;;;;16.72;57.82;97201.80;108934;1251;95844;-78
2023/05/06 07:47:26;;;;;;;8.60;5.50;;;;;;;17.14;57.12;97192.97;108910;1251;103661;-74
2023/05/06 07:49:54;;;;;;;7.30;4.90;;;;;;;17.59;56.40;97194.03;108887;1250;101158;-74
2023/05/06 07:52:24;;;;;;;8.30;4.10;;;;;;;18.02;56.15;97190.80;108847;1250;100020;-74
2023/05/06 07:54:54;;;;;;;5.70;3.60;;;;;;;18.46;55.59;97187.88;108698;1250;95696;-76
2023/05/06 07:57:22;;;;;;;5.50;4.10;;;;;;;18.77;54.84;97186.33;108904;1250;96054;-74
2023/05/06 07:59:52;;;;;;;5.70;4.30;;;;;;;18.98;54.40;97185.33;108665;1250;102382;-77
2023/05/06 08:02:20;;;;;;;10.80;4.20;;;;;;;19.27;54.00;97180.61;108870;1250;100160;-74
2023/05/06 08:04:48;;;;;;;7.00;4.30;;;;;;;19.50;53.47;97175.95;108891;1250;99267;-76
2023/05/06 08:07:16;;;;;;;8.80;3.90;;;;;;;19.83;53.20;97174.34;108891;1250;95574;-74
2023/05/06 08:09:44;;;;;;;10.90;4.90;;;;;;;20.29;51.96;97170.59;108859;1250;95739;-74
2023/05/06 08:12:14;;;;;;;7.40;4.70;;;;;;;20.68;50.63;97167.59;108648;1250;103562;-74
2023/05/06 08:14:42;;;;;;;6.50;4.50;;;;;;;20.89;49.56;97166.93;108951;1250;101546;-73
2023/05/06 08:17:10;;;;;;;7.80;4.10;;;;;;;21.12;49.11;97161.08;108862;1250;99836;-78
2023/05/06 08:19:38;;;;;;;6.60;4.00;;;;;;;21.17;49.21;97159.80;108901;1250;95960;-78
2023/05/06 08:22:06;;;;;;;7.50;4.60;;;;;;;21.41;49.58;97155.98;108894;1250;95618;-75
2023/05/06 08:24:35;;;;;;;7.30;4.50;;;;;;;21.76;49.54;97155.28;108880;1250;103563;-75
2023/05/06 08:27:03;;;;;;;6.30;4.50;;;;;;;22.13;48.22;97152.96;108864;1250;101626;-75
2023/05/06 08:29:31;;;;;;;5.00;4.50;;;;;;;22.49;47.63;97151.61;108883;1250;99861;-73
2023/05/06 08:32:00;;;;;;;6.20;4.70;;;;;;;22.84;46.46;97150.41;108859;1250;95559;-77
2023/05/06 08:34:28;;;;;;;7.50;4.10;;;;;;;23.28;46.18;97146.03;108924;1250;95815;-75
2023/05/06 08:36:56;;;;;;;8.00;4.40;;;;;;;23.78;45.51;97144.29;108892;1250;103051;-75
2023/05/06 08:39:24;;;;;;;4.30;3.80;;;;;;;24.26;44.61;97136.26;108899;1250;101261;-73
2023/05/06 08:41:56;;;;;;;7.30;4.40;;;;;;;24.69;44.34;97134.39;108865;1250;100088;-73
2023/05/06 08:44:25;;;;;;;7.80;4.20;;;;;;;25.05;43.00;97132.46;108826;1250;95797;-73
2023/05/06 08:46:53;;;;;;;7.80;4.20;;;;;;;25.42;42.76;97129.05;108919;1250;95750;-73
2023/05/06 08:49:21;;;;;;;5.00;4.10;;;;;;;25.72;41.93;97122.79;108919;1250;102455;-74
2023/05/06 08:51:52;;;;;;;5.60;3.90;;;;;;;25.88;41.19;97119.44;108918;1250;101140;-73
2023/05/06 08:54:20;;;;;;;5.00;3.60;;;;;;;26.19;40.54;97114.08;108632;1250;99328;-73
2023/05/06 08:56:56;;;;;;;5.80;3.10;;;;;;;26.55;39.63;97111.91;108868;1250;95519;-73
2023/05/06 08:59:26;;;;;;;5.00;3.20;;;;;;;26.78;38.88;97106.41;108869;1250;96424;-74
2023/05/06 09:01:54;;;;;;;5.90;4.20;;;;;;;27.07;38.80;97106.00;108877;1250;103986;-73
2023/05/06 09:04:22;;;;;;;6.80;3.90;;;;;;;27.45;38.63;97102.63;108924;1250;101586;-74
2023/05/06 09:06:50;;;;;;;7.40;3.60;;;;;;;27.83;38.16;97103.62;108830;1250;108428;-73
2023/05/06 09:09:18;;;;;;;4.90;3.90;;;;;;;27.92;37.16;97100.23;108871;1250;95863;-73
2023/05/06 09:11:52;;;;;;;4.20;3.40;;;;;;;27.81;36.91;97101.41;108896;1250;96448;-72
2023/05/06 09:14:21;;;;;;;5.80;3.60;;;;;;;27.50;36.35;97103.78;108914;1250;103656;-74
2023/05/06 09:16:52;;;;;;;4.10;3.60;;;;;;;27.15;36.14;97094.20;108912;1250;101341;-73
2023/05/06 09:19:22;;;;;;;5.30;3.40;;;;;;;27.10;36.25;97090.71;108630;1251;100018;-73
2023/05/06 09:21:51;;;;;;;6.60;3.60;;;;;;;27.26;36.32;97088.09;108844;1250;95531;-72
2023/05/06 09:24:20;;;;;;;3.60;3.20;;;;;;;27.38;35.97;97083.62;108910;1250;95663;-77
2023/05/06 09:26:49;;;;;;;5.60;3.90;;;;;;;27.42;35.08;97081.26;108719;1250;221183;-73
2023/05/06 09:29:17;;;;;;;4.60;3.50;;;;;;;27.29;34.79;97078.23;108899;1250;101289;-73
2023/05/06 09:31:48;;;;;;;5.10;3.20;;;;;;;27.37;35.05;97074.70;108801;1251;99652;-73
2023/05/06 09:34:16;;;;;;;5.70;3.10;;;;;;;27.46;34.79;97068.70;108819;1250;96010;-73
2023/05/06 09:36:45;;;;;;;6.80;3.40;;;;;;;27.52;34.98;97063.98;108867;1250;96336;-74
2023/05/06 09:39:13;;;;;;;5.50;3.00;;;;;;;27.51;34.18;97057.29;108742;1250;111187;-77
2023/05/06 09:41:42;;;;;;;4.70;3.90;;;;;;;27.53;34.32;97053.99;108869;1250;101281;-73
2023/05/06 09:44:11;;;;;;;7.10;4.10;;;;;;;27.54;34.86;97051.86;108548;1251;99870;-74
2023/05/06 09:46:39;;;;;;;5.60;3.60;;;;;;;27.58;35.27;97046.59;108808;1251;95670;-73
2023/05/06 09:49:09;;;;;;;7.10;3.40;;;;;;;27.63;35.58;97046.10;108852;1250;95565;-73
2023/05/06 09:51:37;;;;;;;6.10;3.60;;;;;;;27.71;36.03;97042.39;108787;1251;102655;-75
2023/05/06 09:54:06;;;;;;;4.90;3.90;;;;;;;27.73;35.27;97040.88;108863;1250;101146;-73
2023/05/06 09:56:34;;;;;;;4.10;3.60;;;;;;;27.70;35.15;97035.46;108865;1250;99853;-74
2023/05/06 09:59:04;;;;;;;5.30;3.30;;;;;;;27.78;35.66;97027.55;108928;1250;95857;-75
2023/05/06 10:01:35;;;;;;;6.10;4.00;;;;;;;27.84;35.61;97019.28;108872;1250;95797;-73
2023/05/06 10:04:08;;;;;;;6.50;3.40;;;;;;;27.73;35.17;97019.12;108855;1251;103712;-76
2023/05/06 10:06:38;;;;;;;5.10;3.40;;;;;;;27.46;35.01;97015.42;108806;1250;100438;-77
2023/05/06 10:09:08;;;;;;;4.40;3.80;;;;;;;27.19;34.95;97011.91;108710;1250;99220;-73
2023/05/06 10:11:36;;;;;;;7.30;4.00;;;;;;;26.99;35.48;97005.70;108487;1250;95650;-74
2023/05/06 10:14:05;;;;;;;6.20;3.80;;;;;;;26.83;35.68;97005.13;108877;1250;95602;-72
2023/05/06 10:16:35;;;;;;;6.10;3.90;;;;;;;26.64;35.32;97001.31;108855;1251;103628;-72
2023/05/06 10:19:06;;;;;;;4.40;4.00;;;;;;;26.43;35.53;96993.89;108884;1250;101523;-74
2023/05/06 10:21:39;;;;;;;5.00;3.70;;;;;;;26.22;35.24;96985.91;108852;1250;99888;-74
2023/05/06 10:24:11;;;;;;;4.40;3.80;;;;;;;26.02;35.46;96980.39;108824;1251;95747;-73
2023/05/06 10:26:39;;;;;;;;;;;;;;;25.85;36.08;96976.47;108872;1250;95697;-76
2023/05/06 10:29:10;;;;;;;4.30;3.90;;;;;;;25.67;36.38;96974.05;108914;1250;103441;-74
2023/05/06 10:31:44;;;;;;;5.20;4.00;;;;;;;25.49;36.73;96968.61;108901;1250;101430;-75
2023/05/06 10:34:13;;;;;;;6.80;4.20;;;;;;;25.31;36.96;96958.94;108824;1251;99837;-75
2023/05/06 10:36:43;;;;;;;4.90;3.80;;;;;;;25.14;37.37;96955.17;108846;1250;95561;-73
2023/05/06 10:39:13;;;;;;;8.60;4.50;;;;;;;25.00;37.19;96955.65;108827;1251;96303;-74
2023/05/06 10:41:41;;;;;;;6.40;3.80;;;;;;;24.78;36.83;96952.84;108858;1251;103656;-73
2023/05/06 10:44:10;;;;;;;4.70;4.00;;;;;;;24.55;37.61;96944.30;108875;1250;109933;-73
2023/05/06 10:46:58;;;;;;;5.30;3.90;;;;;;;24.43;38.03;96939.02;108792;1251;100488;-75
2023/05/06 10:49:26;;;;;;;12.00;4.00;;;;;;;24.30;38.31;96938.49;108853;1250;95560;-73
2023/05/06 10:52:13;;;;;;;7.00;4.50;;;;;;;24.19;38.53;96938.49;108855;1251;95655;-72
2023/05/06 10:54:49;;;;;;;6.00;4.00;;;;;;;24.06;38.77;96939.73;108852;1250;103521;-77
2023/05/06 10:57:19;;;;;;;7.00;4.80;;;;;;;23.93;38.73;96935.86;108914;1250;101507;-72
2023/05/06 10:59:49;;;;;;;8.20;4.40;;;;;;;23.71;38.82;96935.34;108576;1250;99991;-75
2023/05/06 11:02:20;;;;;;;6.80;4.60;;;;;;;23.38;39.06;96935.79;108905;1250;95585;-75
2023/05/06 11:04:59;;;;;;;7.10;4.60;;;;;;;23.19;39.76;96936.76;108803;1251;95821;-73
2023/05/06 11:07:27;;;;;;;5.90;4.50;;;;;;;23.06;40.01;96934.63;108861;1250;102305;-74
2023/05/06 11:10:01;;;;;;;6.00;4.50;;;;;;;22.96;40.33;96935.14;108844;1251;101000;-73
2023/05/06 11:12:47;;;;;;;6.50;4.90;;;;;;;22.87;40.93;96932.10;108844;1250;99877;-73
2023/05/06 11:15:37;;;;;;;6.00;4.60;;;;;;;22.74;41.14;96937.90;108606;1250;95599;-72
2023/05/06 11:18:28;;;;;;;6.40;4.90;;;;;;;22.58;41.01;96939.30;108842;1250;95589;-75
2023/05/06 11:21:01;;;;;;;7.90;5.20;;;;;;;22.45;41.12;96944.25;108888;1250;103598;-72
2023/05/06 11:23:42;;;;;;;6.50;4.60;;;;;;;22.25;41.32;96957.52;108783;1251;101399;-73
2023/05/06 11:26:11;;;;;;;6.30;5.00;;;;;;;22.05;41.40;96968.30;108805;1251;100360;-73
2023/05/06 11:28:43;;;;;;;9.20;5.00;;;;;;;21.78;41.50;96985.21;108800;1251;95592;-75